MZP weather

Motueka Airport
Tasman Region, New Zealand

Public forecast

Using degrees Celsius for public forecast. Weather courtesy of forecast.io.

METAR (pilot weather report)

Closest report is Wellington International Airport, 82.9 nm (153.6 km) E. Retrieved 2019/03/23 14:30 UTC (1 minute ago):

NZWN 231430Z AUTO 03011KT 9999 BKN016/// 17/14 Q1022 NOSIG

TAF (pilot weather forecast)

Closest forecast is Wellington International Airport, 82.9 nm (153.6 km) E. Retrieved 2019/03/23 12:09 UTC (2 hours ago):

TAF NZWN 231104Z 2312/2412 03005KT 9999 FEW020 BECMG 2318/2320 36015KT BECMG 2322/2400 36018G30KT